Time;durP1;ratioP1;P1;durP2;ratioP2;P2;SDS_P1;SDS_P2;PMS_P1;PMS_P2;Temp;Humidity;BMP_temperature;BMP_pressure;BME280_temperature;BME280_humidity;BME280_pressure;Samples;Min_cycle;Max_cycle;Signal;HPM_P1;HPM_P2
2022/11/01 00:02:10;;;;;;;;;1.00;1.00;;;;;17.51;65.72;100697.19;4991795;28;48296;-75
2022/11/01 00:04:36;;;;;;;;;0.25;0.25;;;;;17.51;65.79;100702.56;4989166;28;67874;-71
2022/11/01 00:07:01;;;;;;;;;2.25;2.25;;;;;17.50;65.63;100708.97;4971076;28;45706;-73
2022/11/01 00:09:26;;;;;;;;;0.00;0.00;;;;;17.43;64.74;100724.19;4983148;28;45687;-73
2022/11/01 00:11:52;;;;;;;;;0.00;0.00;;;;;16.67;64.48;100606.31;4977257;28;45588;-72
2022/11/01 00:14:18;;;;;;;;;0.00;0.00;;;;;17.30;63.70;100711.41;4977391;28;45503;-74
2022/11/01 00:16:44;;;;;;;;;2.00;0.00;;;;;17.10;62.41;100697.75;4976344;28;45605;-70
2022/11/01 00:19:10;;;;;;;;;0.75;0.75;;;;;17.26;62.60;100726.25;4974805;28;45533;-74
2022/11/01 00:21:35;;;;;;;;;1.50;1.50;;;;;16.84;62.16;100673.25;4978006;28;46729;-72
2022/11/01 00:24:00;;;;;;;;;2.50;1.00;;;;;17.19;62.18;100733.38;4978170;28;45467;-73
2022/11/01 00:26:26;;;;;;;;;2.50;1.00;;;;;16.38;61.68;100630.44;4978061;28;45427;-72
2022/11/01 00:28:51;;;;;;;;;0.00;0.00;;;;;17.15;62.21;100753.59;4976322;28;45441;-73
2022/11/01 00:31:18;;;;;;;;;1.00;1.00;;;;;17.05;61.65;100751.19;4956781;28;47516;-72
2022/11/01 00:33:44;;;;;;;;;1.50;1.00;;;;;16.98;61.82;100763.69;4958631;28;45465;-70
2022/11/01 00:36:10;;;;;;;;;2.75;1.25;;;;;16.26;61.70;100645.34;4990124;28;45531;-70
2022/11/01 00:38:36;;;;;;;;;0.00;0.00;;;;;16.97;61.32;100762.03;4975154;28;45566;-73
2022/11/01 00:41:02;;;;;;;;;1.00;1.00;;;;;17.03;61.07;100778.25;4992551;28;47658;-70
2022/11/01 00:43:30;;;;;;;;;0.00;0.00;;;;;16.97;60.67;100780.81;4977812;28;45366;-71
2022/11/01 00:45:55;;;;;;;;;0.50;0.50;;;;;16.89;61.33;100791.66;4977283;28;45773;-71
2022/11/01 00:48:20;;;;;;;;;0.00;0.00;;;;;16.86;60.95;100802.78;4977014;28;45471;-71
2022/11/01 00:50:49;;;;;;;;;0.00;0.00;;;;;16.54;60.06;100750.19;4977192;28;62029;-70
2022/11/01 00:53:15;;;;;;;;;1.00;1.00;;;;;16.73;60.07;100790.81;4978018;28;45800;-71
2022/11/01 00:55:41;;;;;;;;;0.00;0.00;;;;;16.52;59.93;100757.59;4979081;28;45515;-73
2022/11/01 00:58:07;;;;;;;;;0.00;0.00;;;;;16.36;58.10;100755.88;4978475;28;45517;-74
2022/11/01 01:00:38;;;;;;;;;1.00;0.00;;;;;16.59;58.56;100815.72;4976858;28;48513;-73
2022/11/01 01:03:05;;;;;;;;;0.00;0.00;;;;;16.59;58.22;100822.94;4975070;28;45623;-70
2022/11/01 01:05:32;;;;;;;;;0.00;0.00;;;;;16.51;58.25;100828.41;4977333;28;45544;-72
2022/11/01 01:07:57;;;;;;;;;4.00;1.50;;;;;16.49;58.70;100825.06;4976951;28;45405;-71
2022/11/01 01:10:23;;;;;;;;;0.00;0.00;;;;;16.39;58.12;100814.56;4975802;28;48307;-70
2022/11/01 01:12:48;;;;;;;;;1.00;0.00;;;;;16.52;58.20;100857.72;4977278;28;45511;-71
2022/11/01 01:15:13;;;;;;;;;0.50;0.00;;;;;16.54;58.49;100866.44;4976304;28;45557;-71
2022/11/01 01:17:39;;;;;;;;;0.00;0.00;;;;;16.35;58.15;100840.91;4975291;28;45518;-75
2022/11/01 01:20:06;;;;;;;;;0.00;0.00;;;;;16.47;57.46;100853.94;4977459;28;45965;-73
2022/11/01 01:22:31;;;;;;;;;1.75;0.00;;;;;16.08;57.89;100807.44;4977366;28;45359;-71
2022/11/01 01:24:57;;;;;;;;;3.00;1.00;;;;;16.13;58.37;100807.72;4977358;28;45595;-70
2022/11/01 01:27:22;;;;;;;;;1.25;0.50;;;;;16.44;58.21;100876.59;4975924;28;50369;-72
2022/11/01 01:29:47;;;;;;;;;1.00;1.00;;;;;16.39;58.11;100878.97;4977321;28;46023;-71
2022/11/01 01:32:18;;;;;;;;;1.00;0.00;;;;;16.00;57.58;100820.88;4979326;28;45470;-73
2022/11/01 01:34:44;;;;;;;;;0.00;0.00;;;;;16.26;57.81;100884.94;4979331;28;45525;-72
2022/11/01 01:37:10;;;;;;;;;0.50;0.50;;;;;16.26;57.94;100890.28;4995194;28;45658;-73
2022/11/01 01:39:36;;;;;;;;;1.00;0.00;;;;;16.01;57.82;100848.53;4979545;28;48369;-75
2022/11/01 01:42:12;;;;;;;;;1.50;0.75;;;;;16.25;58.32;100895.84;4981131;28;45298;-73
2022/11/01 01:44:48;;;;;;;;;1.00;1.00;;;;;16.25;58.53;100903.88;4959457;28;45356;-73
2022/11/01 01:47:23;;;;;;;;;1.00;0.00;;;;;16.24;58.63;100912.94;4977532;28;45362;-72
2022/11/01 01:49:53;;;;;;;;;0.75;0.75;;;;;16.24;58.18;100913.78;4978748;28;46388;-71
2022/11/01 01:52:20;;;;;;;;;1.00;0.50;;;;;16.04;58.34;100886.56;4980041;28;45218;-74
2022/11/01 01:54:46;;;;;;;;;1.00;1.00;;;;;16.10;57.60;100901.94;4980178;28;45463;-73
2022/11/01 01:57:12;;;;;;;;;0.00;0.00;;;;;15.87;57.41;100884.97;4979500;28;46208;-73
2022/11/01 01:59:39;;;;;;;;;1.00;1.00;;;;;16.08;57.40;100921.91;4978689;28;46353;-71
2022/11/01 02:02:05;;;;;;;;;0.00;0.00;;;;;15.89;57.60;100909.78;4977978;28;45374;-72
2022/11/01 02:04:54;;;;;;;;;1.00;0.00;;;;;16.01;57.54;100937.84;4979879;28;45308;-70
2022/11/01 02:07:19;;;;;;;;;0.00;0.00;;;;;15.96;57.59;100952.78;4978079;28;45608;-71
2022/11/01 02:09:45;;;;;;;;;0.00;0.00;;;;;15.91;57.33;100945.28;4979777;28;45581;-71
2022/11/01 02:12:12;;;;;;;;;0.00;0.00;;;;;15.58;57.53;100916.88;4979134;28;45428;-71
2022/11/01 02:14:41;;;;;;;;;0.00;0.00;;;;;15.37;57.99;100909.41;4979090;28;45527;-71
2022/11/01 02:17:21;;;;;;;;;0.00;0.00;;;;;15.73;57.99;100968.81;4980566;28;45408;-72
2022/11/01 02:20:04;;;;;;;;;0.00;0.00;;;;;15.58;58.27;100943.66;4979144;28;45577;-72
2022/11/01 02:22:49;;;;;;;;;0.00;0.00;;;;;15.65;58.63;100972.34;4979677;28;45375;-72
2022/11/01 02:25:14;;;;;;;;;0.00;0.00;;;;;15.62;58.92;100978.06;4977517;28;45372;-74
2022/11/01 02:28:08;;;;;;;;;1.25;0.75;;;;;15.49;59.32;100965.16;4980074;28;45315;-72
2022/11/01 02:30:48;;;;;;;;;1.00;0.00;;;;;14.78;59.39;100865.97;4979585;28;46613;-72
2022/11/01 02:33:29;;;;;;;;;2.75;0.00;;;;;15.37;59.73;100974.53;4979720;28;45627;-72
2022/11/01 02:36:06;;;;;;;;;1.00;0.00;;;;;15.38;59.55;100981.56;4976688;28;45498;-71
2022/11/01 02:38:58;;;;;;;;;0.67;0.00;;;;;15.35;59.93;100991.78;4980145;28;45303;-72
2022/11/01 02:41:35;;;;;;;;;1.50;0.00;;;;;14.45;59.95;100849.09;4980338;28;46855;-73
2022/11/01 02:44:03;;;;;;;;;3.33;1.67;;;;;14.27;59.50;100825.16;4979632;28;45341;-74
2022/11/01 02:49:25;;;;;;;;;4.25;1.75;;;;;14.74;59.58;100934.22;4978814;28;45330;-73
2022/11/01 02:51:52;;;;;;;;;1.00;1.00;;;;;14.86;59.59;100970.38;4994286;28;47752;-72
2022/11/01 02:54:32;;;;;;;;;2.75;1.00;;;;;15.04;59.43;101000.50;4979382;28;45495;-72
2022/11/01 02:57:01;;;;;;;;;1.00;0.50;;;;;14.52;59.52;100914.31;4959919;28;45421;-71
2022/11/01 02:59:28;;;;;;;;;2.25;1.00;;;;;15.04;59.67;100995.16;4959921;28;45232;-72
2022/11/01 03:02:04;;;;;;;;;3.00;0.25;;;;;14.98;59.38;100986.94;4959405;28;45715;-71
2022/11/01 03:04:30;;;;;;;;;3.00;2.00;;;;;14.86;59.91;100997.97;4974434;28;45703;-75
2022/11/01 03:07:04;;;;;;;;;0.50;0.00;;;;;14.80;59.99;100997.78;4975245;28;45394;-73
2022/11/01 03:09:32;;;;;;;;;0.00;0.00;;;;;14.82;59.93;100993.97;4958828;28;45296;-72
2022/11/01 03:12:05;;;;;;;;;0.25;0.25;;;;;14.22;60.26;100921.91;4959152;28;48160;-71
2022/11/01 03:14:33;;;;;;;;;2.00;0.00;;;;;14.76;60.14;101013.34;4978011;28;45344;-70
2022/11/01 03:17:07;;;;;;;;;0.00;0.00;;;;;14.48;60.00;100967.31;4979246;28;45544;-71
2022/11/01 03:19:57;;;;;;;;;0.75;0.00;;;;;14.72;60.32;101022.72;4978779;28;45386;-71
2022/11/01 03:22:42;;;;;;;;;1.75;0.75;;;;;14.69;60.17;101023.03;4976800;28;45903;-72
2022/11/01 03:25:41;;;;;;;;;1.00;0.25;;;;;13.63;60.73;100862.25;4978407;28;45175;-72
2022/11/01 03:28:23;;;;;;;;;0.75;0.75;;;;;14.40;60.91;100996.66;4978831;28;45482;-72
2022/11/01 03:30:55;;;;;;;;;3.25;0.00;;;;;14.43;60.95;101012.44;4978964;28;45586;-71
2022/11/01 03:33:23;;;;;;;;;0.75;0.00;;;;;14.14;61.18;100978.03;4989663;28;46062;-73
2022/11/01 03:35:52;;;;;;;;;0.00;0.00;;;;;14.22;61.20;100994.13;4959209;28;45296;-70
2022/11/01 03:38:23;;;;;;;;;0.00;0.00;;;;;14.37;61.49;101036.28;4959859;28;45417;-71
2022/11/01 03:40:54;;;;;;;;;2.75;0.75;;;;;14.47;61.58;101058.44;4959291;28;45546;-72
2022/11/01 03:43:24;;;;;;;;;0.25;0.00;;;;;13.90;61.59;100951.19;4972235;28;48866;-72
2022/11/01 03:45:50;;;;;;;;;0.25;0.25;;;;;14.31;62.08;101046.63;4978405;28;45310;-71
2022/11/01 03:48:15;;;;;;;;;2.00;0.75;;;;;14.38;62.06;101062.03;4993883;28;45494;-71
2022/11/01 03:50:46;;;;;;;;;2.50;0.75;;;;;13.95;61.87;101007.69;4977273;28;46259;-71
2022/11/01 03:53:12;;;;;;;;;0.00;0.00;;;;;14.36;62.14;101085.41;4976782;28;46347;-72
2022/11/01 03:55:37;;;;;;;;;2.50;1.00;;;;;14.37;61.96;101095.13;4978054;28;45452;-70
2022/11/01 03:58:02;;;;;;;;;0.00;0.00;;;;;14.41;61.82;101099.16;4977509;28;45208;-71
2022/11/01 04:00:30;;;;;;;;;2.67;1.33;;;;;13.72;61.97;100991.34;4993613;28;45218;-73
2022/11/01 04:02:57;;;;;;;;;3.00;1.25;;;;;13.74;61.93;100991.19;4977920;28;46258;-72
2022/11/01 04:05:25;;;;;;;;;0.75;0.75;;;;;14.35;62.00;101114.00;4978010;28;45472;-69
2022/11/01 04:07:50;;;;;;;;;0.00;0.00;;;;;14.37;61.96;101108.50;4978177;28;45381;-70
2022/11/01 04:10:18;;;;;;;;;2.00;0.00;;;;;13.44;62.24;100965.81;4978664;28;45349;-74
2022/11/01 04:12:46;;;;;;;;;2.25;1.25;;;;;14.24;62.38;101108.94;4978050;28;45428;-73
2022/11/01 04:20:54;;;;;;;;;2.75;0.25;;;;;13.80;62.51;101068.06;4977967;28;45486;-73
2022/11/01 04:23:23;;;;;;;;;5.67;1.33;;;;;14.34;62.42;101156.97;4976935;28;45275;-71
2022/11/01 04:25:48;;;;;;;;;0.75;0.75;;;;;14.11;62.26;101117.38;4976697;28;45293;-72
2022/11/01 04:28:15;;;;;;;;;1.50;1.50;;;;;13.88;62.47;101086.84;4977895;28;45306;-72
2022/11/01 04:30:41;;;;;;;;;1.00;1.00;;;;;14.22;62.23;101161.75;4992901;28;45355;-70
2022/11/01 04:33:07;;;;;;;;;0.00;0.00;;;;;14.05;62.78;101141.25;4976557;28;46704;-74
2022/11/01 04:35:32;;;;;;;;;3.75;0.75;;;;;13.86;62.62;101110.22;4976564;28;45439;-74
2022/11/01 04:37:58;;;;;;;;;1.00;1.00;;;;;14.17;62.45;101167.56;4976393;28;45720;-71
2022/11/01 04:40:24;;;;;;;;;2.33;1.67;;;;;14.17;62.36;101188.94;4977275;28;45637;-72
2022/11/01 04:42:52;;;;;;;;;1.75;1.75;;;;;14.09;62.65;101196.91;4975200;28;47660;-71
2022/11/01 04:45:17;;;;;;;;;3.25;1.50;;;;;14.14;62.56;101196.44;4991175;28;45497;-72
2022/11/01 04:47:49;;;;;;;;;0.00;0.00;;;;;13.75;62.78;101143.34;4977619;28;45538;-71
2022/11/01 04:50:16;;;;;;;;;1.33;1.33;;;;;13.64;62.84;101124.91;4976456;28;45510;-71
2022/11/01 04:52:44;;;;;;;;;5.00;2.00;;;;;13.94;63.71;101193.13;4976891;28;45458;-74
2022/11/01 04:55:10;;;;;;;;;2.00;2.00;;;;;13.86;63.54;101179.69;4975831;28;45430;-70
2022/11/01 04:57:42;;;;;;;;;2.00;0.67;;;;;13.88;63.60;101204.44;4991747;28;45773;-70
2022/11/01 05:00:12;;;;;;;;;0.33;0.33;;;;;13.65;63.36;101145.28;4980236;28;45283;-73
2022/11/01 05:02:39;;;;;;;;;1.25;0.50;;;;;13.83;64.12;101199.56;4991194;28;47741;-73
2022/11/01 05:05:06;;;;;;;;;2.25;0.50;;;;;13.88;63.99;101215.13;4975733;28;45396;-72
2022/11/01 05:07:32;;;;;;;;;4.00;1.00;;;;;13.81;64.68;101232.75;4977575;28;45424;-71
2022/11/01 05:09:57;;;;;;;;;4.00;0.33;;;;;13.58;64.50;101177.09;4977881;28;45392;-70
2022/11/01 05:12:23;;;;;;;;;1.50;1.50;;;;;13.71;64.65;101214.13;4991858;28;48505;-70
2022/11/01 05:14:48;;;;;;;;;6.00;3.67;;;;;13.48;64.88;101176.34;4976322;28;45536;-72
2022/11/01 05:17:14;;;;;;;;;4.25;0.50;;;;;13.58;64.50;101182.44;4995817;28;45437;-70
2022/11/01 05:19:39;;;;;;;;;4.67;1.67;;;;;13.93;64.57;101228.88;4975491;28;45521;-73
2022/11/01 05:22:05;;;;;;;;;7.00;2.67;;;;;13.89;64.52;101228.34;4975933;28;46094;-72
2022/11/01 05:24:30;;;;;;;;;3.25;1.00;;;;;13.65;64.41;101191.53;4975802;28;45398;-72
2022/11/01 05:26:55;;;;;;;;;1.67;1.67;;;;;13.72;64.96;101252.38;4977469;28;45330;-72
2022/11/01 05:29:21;;;;;;;;;3.67;1.67;;;;;13.63;65.38;101233.63;4977116;28;45291;-71
2022/11/01 05:31:46;;;;;;;;;1.67;1.33;;;;;13.74;65.31;101237.03;4977255;28;45801;-72
2022/11/01 05:34:11;;;;;;;;;4.33;1.00;;;;;13.73;65.30;101240.69;4976902;28;45420;-73
2022/11/01 05:36:37;;;;;;;;;1.33;1.33;;;;;13.63;65.32;101233.63;4976806;28;45452;-71
2022/11/01 05:39:02;;;;;;;;;0.67;0.67;;;;;13.64;65.58;101240.63;4976750;28;45270;-74
2022/11/01 05:41:28;;;;;;;;;6.00;2.67;;;;;12.80;65.44;101107.34;4976050;28;46805;-72
2022/11/01 05:43:53;;;;;;;;;5.67;2.00;;;;;13.24;65.55;101173.44;4975165;28;45458;-71
2022/11/01 05:46:18;;;;;;;;;3.00;2.33;;;;;13.58;65.59;101251.91;4976952;28;45602;-73
2022/11/01 05:48:44;;;;;;;;;4.00;2.00;;;;;13.48;66.00;101245.81;4977173;28;45419;-69
2022/11/01 05:51:10;;;;;;;;;3.00;3.00;;;;;13.24;65.99;101211.66;4974726;28;48648;-72
2022/11/01 05:53:36;;;;;;;;;3.67;0.67;;;;;13.23;66.17;101201.13;4975141;28;45393;-73
2022/11/01 05:56:01;;;;;;;;;2.00;1.67;;;;;13.47;66.31;101260.16;4977948;28;45196;-69
2022/11/01 05:58:27;;;;;;;;;4.33;1.33;;;;;13.51;66.32;101256.19;4976479;28;45295;-71
2022/11/01 06:01:05;;;;;;;;;3.67;1.00;;;;;13.48;66.45;101243.13;4976062;28;45846;-71
2022/11/01 06:03:31;;;;;;;;;7.00;3.33;;;;;13.50;66.32;101259.00;4976172;28;45461;-72
2022/11/01 06:05:58;;;;;;;;;0.67;0.67;;;;;13.50;66.40;101256.34;4976280;28;45223;-71
2022/11/01 06:08:24;;;;;;;;;4.00;2.00;;;;;13.05;66.56;101193.88;4976667;28;45352;-71
2022/11/01 06:10:50;;;;;;;;;4.67;2.33;;;;;12.96;66.52;101178.75;4991758;28;47518;-71
2022/11/01 06:13:16;;;;;;;;;1.00;1.00;;;;;13.40;66.64;101245.69;4977372;28;45505;-73
2022/11/01 06:15:41;;;;;;;;;6.67;2.00;;;;;13.08;66.45;101220.28;4977777;28;45413;-75
2022/11/01 06:18:07;;;;;;;;;1.33;1.33;;;;;13.38;66.97;101277.91;4978975;28;45260;-72
2022/11/01 06:20:33;;;;;;;;;3.33;1.67;;;;;12.75;66.68;101167.50;4977708;28;47812;-71
2022/11/01 06:22:59;;;;;;;;;3.67;2.67;;;;;13.32;66.55;101264.31;4979826;28;45521;-72
2022/11/01 06:25:26;;;;;;;;;2.67;1.00;;;;;13.35;66.55;101278.19;4979532;28;45339;-70
2022/11/01 06:27:53;;;;;;;;;3.00;2.00;;;;;13.40;66.80;101275.06;4994518;28;45588;-72
2022/11/01 06:30:19;;;;;;;;;3.33;3.33;;;;;13.38;66.75;101271.72;4977594;28;46212;-72
2022/11/01 06:32:44;;;;;;;;;4.67;3.33;;;;;12.92;67.23;101222.75;4979497;28;45274;-72
2022/11/01 06:35:10;;;;;;;;;3.33;2.67;;;;;12.36;66.99;101140.97;4994623;28;45342;-71
2022/11/01 06:37:36;;;;;;;;;3.00;2.67;;;;;12.72;67.24;101191.78;4980061;28;45347;-71
2022/11/01 06:40:02;;;;;;;;;1.67;1.67;;;;;13.08;67.66;101255.00;4978973;28;46485;-71
2022/11/01 06:42:27;;;;;;;;;2.00;2.00;;;;;13.14;66.94;101269.56;4979242;28;45437;-71
2022/11/01 06:44:53;;;;;;;;;2.33;1.00;;;;;12.70;67.22;101199.09;4993901;28;45311;-70
2022/11/01 06:47:18;;;;;;;;;1.00;1.00;;;;;13.01;67.36;101248.56;4979625;28;45293;-70
2022/11/01 06:49:43;;;;;;;;;7.00;3.67;;;;;13.32;67.04;101299.03;4978823;28;46639;-69
2022/11/01 06:52:09;;;;;;;;;4.67;1.00;;;;;13.16;67.34;101277.41;4979779;28;45337;-71
2022/11/01 06:54:34;;;;;;;;;3.00;2.00;;;;;13.34;67.05;101310.41;4979332;28;45376;-72
2022/11/01 06:56:59;;;;;;;;;4.00;2.67;;;;;13.21;67.16;101301.88;4978452;28;53713;-73
2022/11/01 06:59:24;;;;;;;;;4.00;1.00;;;;;13.36;67.24;101317.25;4977822;28;62400;-71
2022/11/01 07:01:51;;;;;;;;;1.00;1.00;;;;;13.33;67.07;101306.03;4976332;28;67107;-71
2022/11/01 07:04:16;;;;;;;;;3.00;2.00;;;;;12.99;67.34;101249.69;4979296;28;45504;-71
2022/11/01 07:06:42;;;;;;;;;2.00;2.00;;;;;13.18;67.54;101296.84;4980172;28;45467;-70
2022/11/01 07:09:07;;;;;;;;;5.33;3.00;;;;;13.29;67.14;101304.66;4978832;28;45722;-72
2022/11/01 07:11:33;;;;;;;;;5.33;2.33;;;;;13.34;67.25;101324.59;4978695;28;45402;-76
2022/11/01 07:13:58;;;;;;;;;3.00;1.67;;;;;12.51;67.52;101186.69;4978985;28;45390;-72
2022/11/01 07:16:24;;;;;;;;;3.00;2.00;;;;;13.15;67.41;101300.63;4979033;28;45322;-70
2022/11/01 07:18:51;;;;;;;;;3.67;2.00;;;;;13.33;67.53;101327.41;4978878;28;45346;-72
2022/11/01 07:21:16;;;;;;;;;2.67;0.67;;;;;13.29;67.43;101326.03;4993173;28;45526;-73
2022/11/01 07:23:42;;;;;;;;;3.00;3.00;;;;;13.31;67.33;101324.88;4977348;28;45496;-71
2022/11/01 07:26:07;;;;;;;;;2.33;1.33;;;;;13.09;67.13;101287.84;4979210;28;45552;-73
2022/11/01 07:28:33;;;;;;;;;6.00;2.67;;;;;13.23;67.17;101305.28;4978705;28;45682;-71
2022/11/01 07:30:59;;;;;;;;;3.67;2.33;;;;;13.54;66.93;101360.06;4993302;28;45489;-72
2022/11/01 07:33:24;;;;;;;;;1.00;1.00;;;;;13.56;66.74;101371.44;4978126;28;45554;-74
2022/11/01 07:35:50;;;;;;;;;1.00;1.00;;;;;12.90;66.72;101248.75;4979695;28;45428;-72
2022/11/01 07:38:15;;;;;;;;;2.00;1.67;;;;;13.46;65.79;101327.06;4979326;28;46357;-72
2022/11/01 07:40:41;;;;;;;;;3.67;1.67;;;;;13.46;66.28;101335.09;4994133;28;58015;-75
2022/11/01 07:43:06;;;;;;;;;3.67;0.33;;;;;13.72;66.07;101359.28;4978890;28;46202;-71
2022/11/01 07:45:33;;;;;;;;;3.67;0.00;;;;;13.70;65.98;101354.91;4979069;28;45440;-71
2022/11/01 07:48:12;;;;;;;;;6.33;4.33;;;;;13.89;65.67;101374.50;4977843;28;46178;-71
2022/11/01 07:50:39;;;;;;;;;7.33;5.00;;;;;13.26;65.33;101260.41;4978405;28;45339;-72
2022/11/01 07:53:07;;;;;;;;;3.67;1.00;;;;;13.99;65.58;101369.94;4977387;28;45429;-70
2022/11/01 07:55:34;;;;;;;;;2.67;2.33;;;;;13.92;65.25;101344.78;4975407;28;45460;-71
2022/11/01 07:58:01;;;;;;;;;1.33;0.67;;;;;14.11;64.38;101355.34;4976675;28;45511;-69
2022/11/01 08:00:27;;;;;;;;;1.33;1.33;;;;;14.45;63.45;101365.41;4979016;28;45327;-72
2022/11/01 08:03:01;;;;;;;;;2.00;1.00;;;;;14.63;62.16;101307.34;4978386;28;45488;-72
2022/11/01 08:05:26;;;;;;;;;4.00;1.67;;;;;15.22;59.74;101286.94;4976848;28;45546;-69
2022/11/01 08:07:51;;;;;;;;;2.75;2.25;;;;;16.79;57.45;101395.25;4976318;28;45741;-72
2022/11/01 08:10:17;;;;;;;;;4.50;1.50;;;;;17.48;54.32;101372.28;4973236;28;67046;-70
2022/11/01 08:12:42;;;;;;;;;2.00;0.25;;;;;18.19;53.05;101395.47;4976832;28;45447;-74
2022/11/01 08:15:08;;;;;;;;;1.00;1.00;;;;;18.38;51.35;101375.31;4976594;28;45557;-74
2022/11/01 08:17:34;;;;;;;;;2.00;1.00;;;;;18.24;51.69;101393.09;4975447;28;46035;-73
2022/11/01 08:20:00;;;;;;;;;4.00;2.00;;;;;18.05;52.01;101318.22;4975797;28;45408;-74
2022/11/01 08:22:26;;;;;;;;;3.50;0.50;;;;;18.68;50.48;101373.63;4990917;28;45440;-74
2022/11/01 08:24:51;;;;;;;;;2.50;2.00;;;;;19.21;49.46;101342.09;4977153;28;45322;-73
2022/11/01 08:27:17;;;;;;;;;1.25;1.25;;;;;19.82;47.61;101364.28;4976948;28;45639;-73
2022/11/01 08:29:43;;;;;;;;;1.33;0.33;;;;;19.87;47.59;101388.84;4978615;28;45425;-71
2022/11/01 08:32:08;;;;;;;;;3.00;3.00;;;;;19.56;47.33;101378.28;4977928;28;45429;-71
2022/11/01 08:34:33;;;;;;;;;1.75;1.25;;;;;19.49;48.43;101390.81;4992688;28;45820;-72
2022/11/01 08:36:59;;;;;;;;;2.50;1.00;;;;;19.48;48.21;101378.34;4978179;28;47765;-73
2022/11/01 08:39:25;;;;;;;;;1.75;1.75;;;;;19.18;48.47;101291.25;4975355;28;45332;-71
2022/11/01 08:41:51;;;;;;;;;1.50;1.50;;;;;19.72;48.19;101373.53;4978009;28;45413;-73
2022/11/01 08:44:18;;;;;;;;;1.00;1.00;;;;;20.13;47.09;101391.00;4977733;28;45612;-75
2022/11/01 08:46:44;;;;;;;;;2.25;1.00;;;;;20.82;45.62;101351.63;4979506;28;46565;-76
2022/11/01 08:49:10;;;;;;;;;0.50;0.25;;;;;21.38;44.26;101370.50;4977855;28;45183;-75
2022/11/01 08:51:36;;;;;;;;;2.75;1.75;;;;;20.76;43.62;101268.59;4977747;28;45181;-77
2022/11/01 08:54:02;;;;;;;;;1.25;1.00;;;;;21.95;42.40;101380.13;4979015;28;45468;-76
2022/11/01 08:56:28;;;;;;;;;1.50;0.50;;;;;22.57;40.82;101376.31;4989926;28;47530;-71
2022/11/01 08:58:54;;;;;;;;;4.00;3.00;;;;;23.25;39.97;101374.22;4974605;28;45549;-72
2022/11/01 09:01:22;;;;;;;;;1.25;0.00;;;;;23.79;38.72;101356.72;4977088;28;45327;-72
2022/11/01 09:03:48;;;;;;;;;2.75;1.50;;;;;24.79;37.43;101376.78;4977896;28;45264;-73
2022/11/01 09:06:14;;;;;;;;;3.25;1.00;;;;;25.41;36.38;101391.28;4977015;28;46282;-73
2022/11/01 09:08:40;;;;;;;;;4.00;2.25;;;;;25.30;35.52;101340.31;4990355;28;45433;-75
2022/11/01 09:11:05;;;;;;;;;3.25;2.00;;;;;24.18;35.27;101178.25;4991888;28;45362;-73
2022/11/01 09:13:32;;;;;;;;;1.50;1.00;;;;;24.56;35.75;101373.84;4977196;28;45375;-73
2022/11/01 09:15:57;;;;;;;;;0.50;0.50;;;;;23.90;37.81;101388.66;4977808;28;46076;-75
2022/11/01 09:18:23;;;;;;;;;2.00;2.00;;;;;23.29;39.02;101385.50;4977303;28;45366;-79
2022/11/01 09:20:55;;;;;;;;;1.75;1.00;;;;;22.55;40.12;101388.41;4973707;28;45320;-78
2022/11/01 09:23:20;;;;;;;;;3.50;0.75;;;;;21.72;41.37;101345.28;4973058;28;45673;-78
2022/11/01 09:25:46;;;;;;;;;3.75;2.00;;;;;21.51;42.42;101383.28;4988857;28;48032;-76
2022/11/01 09:28:12;;;;;;;;;2.00;2.00;;;;;21.19;43.21;101376.59;4991745;28;46312;-77
2022/11/01 09:30:38;;;;;;;;;3.50;1.75;;;;;21.07;43.75;101395.25;4991275;28;45269;-74
2022/11/01 09:33:04;;;;;;;;;2.50;0.50;;;;;20.30;44.38;101358.19;4973901;28;45527;-78
2022/11/01 09:35:30;;;;;;;;;0.25;0.25;;;;;20.14;45.51;101398.91;4976804;28;45793;-75
2022/11/01 09:37:59;;;;;;;;;2.75;1.00;;;;;19.98;45.92;101409.94;4978432;28;45888;-78
2022/11/01 09:40:27;;;;;;;;;1.00;1.00;;;;;19.53;46.40;101367.84;4978145;28;45235;-69
2022/11/01 09:42:53;;;;;;;;;2.25;2.25;;;;;19.61;46.81;101419.84;4976526;28;45661;-70
2022/11/01 09:45:21;;;;;;;;;4.50;2.50;;;;;18.86;47.22;101328.31;4973120;28;45445;-71
2022/11/01 09:47:55;;;;;;;;;1.25;1.25;;;;;19.06;48.57;101426.47;4977029;28;45266;-70
2022/11/01 09:50:23;;;;;;;;;1.75;1.00;;;;;18.79;48.70;101421.66;4993014;28;45416;-77
2022/11/01 09:52:50;;;;;;;;;4.00;2.50;;;;;18.06;49.06;101355.72;4980719;28;45511;-78
2022/11/01 09:55:23;;;;;;;;;4.25;2.00;;;;;18.30;49.74;101419.31;4976308;28;47021;-78
2022/11/01 09:58:00;;;;;;;;;3.50;0.00;;;;;18.08;50.46;101403.97;4978242;28;45588;-75
2022/11/01 10:00:33;;;;;;;;;5.00;3.00;;;;;17.81;50.92;101383.75;4994789;28;45516;-77
2022/11/01 10:03:28;;;;;;;;;1.25;0.75;;;;;17.91;50.91;101398.66;4975880;28;45615;-75
2022/11/01 10:06:08;;;;;;;;;1.75;1.00;;;;;18.00;51.10;101422.81;4976407;28;46821;-73
2022/11/01 10:08:52;;;;;;;;;0.75;0.75;;;;;17.71;51.42;101410.03;4972593;28;45526;-75
2022/11/01 10:11:23;;;;;;;;;2.50;0.00;;;;;17.72;52.07;101425.97;4977096;28;45678;-74
2022/11/01 10:14:09;;;;;;;;;0.25;0.25;;;;;17.61;52.30;101431.69;4978563;28;45684;-75
2022/11/01 10:16:42;;;;;;;;;1.00;1.00;;;;;17.39;52.67;101413.63;4967716;28;48094;-80
2022/11/01 10:19:10;;;;;;;;;3.50;1.50;;;;;17.39;53.26;101427.06;4979280;28;45531;-76
2022/11/01 10:22:00;;;;;;;;;3.67;1.00;;;;;17.34;53.43;101416.81;4993549;28;45505;-78
2022/11/01 10:24:30;;;;;;;;;1.00;1.00;;;;;16.72;53.66;101330.66;4975809;28;47195;-73
2022/11/01 10:27:03;;;;;;;;;3.25;1.00;;;;;16.65;53.47;101335.00;4976535;28;47294;-74
2022/11/01 10:29:41;;;;;;;;;3.50;1.00;;;;;17.17;53.82;101432.13;4976683;28;45415;-73
2022/11/01 10:32:36;;;;;;;;;3.00;1.00;;;;;16.24;54.04;101299.28;4977898;28;45454;-74
2022/11/01 10:35:13;;;;;;;;;1.50;1.50;;;;;16.96;54.27;101423.78;4993337;28;45624;-72
2022/11/01 10:37:51;;;;;;;;;1.75;0.00;;;;;17.20;53.71;101447.91;4978942;28;46110;-73
2022/11/01 10:40:29;;;;;;;;;2.50;2.25;;;;;16.85;53.26;101368.56;4978182;28;45442;-72
2022/11/01 10:42:54;;;;;;;;;2.75;2.00;;;;;17.08;53.94;101400.09;4980766;28;45267;-74
2022/11/01 10:45:22;;;;;;;;;5.67;2.33;;;;;17.23;53.74;101426.09;4978695;28;45633;-73
2022/11/01 10:47:56;;;;;;;;;4.00;1.00;;;;;16.99;53.93;101399.25;4979777;28;47124;-73
2022/11/01 10:50:27;;;;;;;;;3.50;2.00;;;;;17.11;53.32;101422.09;4979663;28;45346;-72
2022/11/01 10:53:02;;;;;;;;;6.33;4.00;;;;;17.14;53.67;101416.38;4979873;28;45199;-75
2022/11/01 10:55:33;;;;;;;;;3.00;2.00;;;;;17.27;53.57;101410.47;4966474;28;45513;-73
2022/11/01 10:58:23;;;;;;;;;4.00;1.25;;;;;17.24;53.45;101405.44;4981076;28;45647;-72
2022/11/01 11:00:50;;;;;;;;;4.00;1.00;;;;;17.19;53.57;101394.34;4978812;28;58865;-72
2022/11/01 11:03:26;;;;;;;;;6.00;2.75;;;;;17.09;52.76;101381.13;4980751;28;45600;-74
2022/11/01 11:05:53;;;;;;;;;2.00;1.00;;;;;17.34;53.00;101401.53;4981363;28;45509;-74
2022/11/01 11:08:23;;;;;;;;;4.00;1.25;;;;;17.34;53.15;101412.28;4979573;28;45416;-75
2022/11/01 11:10:49;;;;;;;;;2.00;1.00;;;;;17.38;53.19;101409.25;4979344;28;45270;-73
2022/11/01 11:13:20;;;;;;;;;4.00;1.25;;;;;17.39;53.89;101408.25;4980346;28;45250;-74
2022/11/01 11:16:03;;;;;;;;;2.67;1.00;;;;;17.42;52.74;101392.63;4979782;28;45469;-74
2022/11/01 11:18:38;;;;;;;;;2.00;2.00;;;;;17.29;53.07;101403.91;4980120;28;45639;-71
2022/11/01 11:21:10;;;;;;;;;2.50;0.50;;;;;17.32;53.41;101414.31;4981654;28;45531;-75
2022/11/01 11:23:43;;;;;;;;;1.00;1.00;;;;;17.31;53.40;101407.25;4981982;28;45576;-74
2022/11/01 11:26:16;;;;;;;;;2.67;1.00;;;;;17.30;53.24;101405.59;4983915;28;45475;-77
2022/11/01 11:28:59;;;;;;;;;1.00;1.00;;;;;17.22;53.30;101388.63;4981674;28;47012;-73
2022/11/01 11:31:37;;;;;;;;;4.00;1.00;;;;;17.49;53.09;101411.59;4981721;28;46123;-72
2022/11/01 11:34:25;;;;;;;;;1.50;1.00;;;;;17.58;52.80;101408.69;4981964;28;45455;-73
2022/11/01 11:36:53;;;;;;;;;0.00;0.00;;;;;17.55;52.29;101406.34;4995810;28;45360;-74
2022/11/01 11:39:22;;;;;;;;;1.50;1.00;;;;;17.64;52.27;101420.63;4993499;28;47656;-74
2022/11/01 11:41:54;;;;;;;;;0.50;0.50;;;;;17.69;52.63;101394.06;4982491;28;45508;-72